createdAt,value
2017-09-21T00:01:56.622Z,18.40
2017-09-21T00:04:25.014Z,21.17
2017-09-21T00:06:52.576Z,16.57
2017-09-21T00:09:20.929Z,18.27
2017-09-21T00:11:48.532Z,18.10
2017-09-21T00:14:17.437Z,16.17
2017-09-21T00:16:45.021Z,15.27
2017-09-21T00:19:12.599Z,16.17
2017-09-21T00:21:40.220Z,19.43
2017-09-21T00:24:07.781Z,16.03
2017-09-21T00:26:35.472Z,18.23
2017-09-21T00:29:03.091Z,19.33
2017-09-21T00:31:31.440Z,17.93
2017-09-21T00:33:59.028Z,17.33
2017-09-21T00:36:26.628Z,17.83
2017-09-21T00:38:54.209Z,17.60
2017-09-21T00:41:21.785Z,17.27
2017-09-21T00:43:49.392Z,14.97
2017-09-21T00:46:18.171Z,19.83
2017-09-21T00:48:45.758Z,21.10
2017-09-21T00:51:14.139Z,16.77
2017-09-21T00:53:42.518Z,22.93
2017-09-21T00:56:10.863Z,17.87
2017-09-21T00:58:38.541Z,14.83
2017-09-21T01:01:06.969Z,19.07
2017-09-21T01:03:34.567Z,20.53
2017-09-21T01:06:02.163Z,16.17
2017-09-21T01:08:29.763Z,17.07
2017-09-21T01:10:57.406Z,15.50
2017-09-21T01:13:25.756Z,21.23
2017-09-21T01:15:53.317Z,17.07
2017-09-21T01:18:20.949Z,17.20
2017-09-21T01:20:49.101Z,15.57
2017-09-21T01:23:17.522Z,20.00
2017-09-21T01:25:45.117Z,21.80
2017-09-21T01:28:12.695Z,20.07
2017-09-21T01:30:40.343Z,18.53
2017-09-21T01:33:07.959Z,16.03
2017-09-21T01:35:35.559Z,18.07
2017-09-21T01:38:03.170Z,17.90
2017-09-21T01:40:32.135Z,18.30
2017-09-21T01:42:59.752Z,22.43
2017-09-21T01:45:27.335Z,17.20
2017-09-21T01:47:55.006Z,17.43
2017-09-21T01:50:22.593Z,16.60
2017-09-21T01:52:50.336Z,19.97
2017-09-21T01:55:17.924Z,15.60
2017-09-21T01:57:45.522Z,15.20
2017-09-21T02:00:13.940Z,16.40
2017-09-21T02:02:41.540Z,22.73
2017-09-21T02:05:09.136Z,22.10
2017-09-21T02:07:37.531Z,15.47
2017-09-21T02:10:05.133Z,16.53
2017-09-21T02:12:32.762Z,18.20
2017-09-21T02:15:00.371Z,20.03
2017-09-21T02:17:27.961Z,18.63
2017-09-21T02:19:55.568Z,19.80
2017-09-21T02:22:23.146Z,23.20
2017-09-21T02:24:50.754Z,20.93
2017-09-21T02:27:19.104Z,25.50
2017-09-21T02:29:46.675Z,20.73
2017-09-21T02:32:14.274Z,19.90
2017-09-21T02:34:42.671Z,23.60
2017-09-21T02:37:10.252Z,17.40
2017-09-21T02:39:37.817Z,18.93
2017-09-21T02:42:05.544Z,19.43
2017-09-21T02:44:33.202Z,17.33
2017-09-21T02:47:00.801Z,16.83
2017-09-21T02:49:29.139Z,17.97
2017-09-21T02:51:56.721Z,18.80
2017-09-21T02:54:24.366Z,19.07
2017-09-21T02:56:51.961Z,21.20
2017-09-21T02:59:19.605Z,23.37
2017-09-21T03:01:47.220Z,19.47
2017-09-21T03:04:14.850Z,20.80
2017-09-21T03:06:44.259Z,19.07
2017-09-21T03:09:12.608Z,22.17
2017-09-21T03:11:40.999Z,20.43
2017-09-21T03:14:08.565Z,18.00
2017-09-21T03:16:36.732Z,17.70
2017-09-21T03:19:04.335Z,18.90
2017-09-21T03:21:32.699Z,22.50
2017-09-21T03:24:00.325Z,18.27
2017-09-21T03:26:27.917Z,16.93
2017-09-21T03:28:55.490Z,21.73
2017-09-21T03:31:23.080Z,28.90
2017-09-21T03:33:51.415Z,18.17
2017-09-21T03:36:19.030Z,16.87
2017-09-21T03:38:48.206Z,19.27
2017-09-21T03:41:15.921Z,18.37
2017-09-21T03:43:43.529Z,16.63
2017-09-21T03:46:11.918Z,15.10
2017-09-21T03:48:39.539Z,16.00
2017-09-21T03:51:07.110Z,16.77
2017-09-21T03:53:35.859Z,19.80
2017-09-21T03:56:04.282Z,19.80
2017-09-21T03:58:31.865Z,19.97
2017-09-21T04:00:59.459Z,19.90
2017-09-21T04:03:27.806Z,18.50
2017-09-21T04:05:55.447Z,17.47
2017-09-21T04:08:24.215Z,15.33
2017-09-21T04:10:51.772Z,16.23
2017-09-21T04:13:20.118Z,20.80
2017-09-21T04:15:47.701Z,20.33
2017-09-21T04:18:15.369Z,17.60
2017-09-21T04:20:43.738Z,15.97
2017-09-21T04:23:11.325Z,20.03
2017-09-21T04:25:39.660Z,17.60
2017-09-21T04:28:07.276Z,17.87
2017-09-21T04:30:35.744Z,20.37
2017-09-21T04:33:03.479Z,17.07
2017-09-21T04:35:31.895Z,22.67
2017-09-21T04:37:59.481Z,20.00
2017-09-21T04:40:28.701Z,18.37
2017-09-21T04:42:56.310Z,19.60
2017-09-21T04:45:23.913Z,18.80
2017-09-21T04:47:52.288Z,17.43
2017-09-21T04:50:20.623Z,26.73
2017-09-21T04:52:48.223Z,23.80
2017-09-21T04:55:15.831Z,22.47
2017-09-21T04:57:43.415Z,20.40
2017-09-21T05:00:11.011Z,18.13
2017-09-21T05:02:38.594Z,17.40
2017-09-21T05:05:07.008Z,20.13
2017-09-21T05:07:34.621Z,20.70
2017-09-21T05:10:02.208Z,18.77
2017-09-21T05:12:30.543Z,21.80
2017-09-21T05:14:58.145Z,18.90
2017-09-21T05:17:26.518Z,24.60
2017-09-21T05:19:54.192Z,16.70
2017-09-21T05:22:22.535Z,21.77
2017-09-21T05:24:50.155Z,26.70
2017-09-21T05:27:17.854Z,19.80
2017-09-21T05:29:45.719Z,20.03
2017-09-21T05:32:13.329Z,24.00
2017-09-21T05:34:40.889Z,20.70
2017-09-21T05:37:08.501Z,23.23
2017-09-21T05:39:36.093Z,19.50
2017-09-21T05:42:03.667Z,24.50
2017-09-21T05:44:31.244Z,22.57
2017-09-21T05:46:58.807Z,18.87
2017-09-21T05:49:26.543Z,24.63
2017-09-21T05:51:54.111Z,21.77
2017-09-21T05:54:21.664Z,17.50
2017-09-21T05:56:49.274Z,19.23
2017-09-21T05:59:16.872Z,19.10
2017-09-21T06:01:44.467Z,28.00
2017-09-21T06:04:12.046Z,24.50
2017-09-21T06:06:39.684Z,16.60
2017-09-21T06:09:07.350Z,16.90
2017-09-21T06:11:34.962Z,19.50
2017-09-21T06:14:02.562Z,21.43
2017-09-21T06:16:30.139Z,19.70
2017-09-21T06:18:57.737Z,21.50
2017-09-21T06:21:25.289Z,17.73
2017-09-21T06:23:52.883Z,19.63
2017-09-21T06:26:20.466Z,22.27
2017-09-21T06:28:48.914Z,25.07
2017-09-21T06:31:16.503Z,18.97
2017-09-21T06:33:44.831Z,21.87
2017-09-21T06:36:12.423Z,22.10
2017-09-21T06:38:40.029Z,23.40
2017-09-21T06:41:08.549Z,19.73
2017-09-21T06:43:36.155Z,21.60
2017-09-21T06:46:03.754Z,24.87
2017-09-21T06:48:31.367Z,24.13
2017-09-21T06:50:58.995Z,24.73
2017-09-21T06:53:26.591Z,35.80
2017-09-21T06:55:54.173Z,24.17
2017-09-21T06:58:21.841Z,21.80
2017-09-21T07:00:49.422Z,26.17
2017-09-21T07:03:17.049Z,25.10
2017-09-21T07:05:44.609Z,19.90
2017-09-21T07:08:12.242Z,29.90
2017-09-21T07:10:39.834Z,23.33
2017-09-21T07:13:07.401Z,24.63
2017-09-21T07:15:34.999Z,28.60
2017-09-21T07:18:03.459Z,25.20
2017-09-21T07:20:31.097Z,22.50
2017-09-21T07:22:58.697Z,24.27
2017-09-21T07:25:26.311Z,18.43
2017-09-21T07:27:54.018Z,21.43
2017-09-21T07:30:21.614Z,20.30
2017-09-21T07:32:49.973Z,21.57
2017-09-21T07:35:17.577Z,26.50
2017-09-21T07:37:45.179Z,14.87
2017-09-21T07:40:12.785Z,23.00
2017-09-21T07:42:41.147Z,18.47
2017-09-21T07:45:08.756Z,20.47
2017-09-21T07:47:36.370Z,19.90
2017-09-21T07:50:04.078Z,26.37
2017-09-21T07:52:32.446Z,21.77
2017-09-21T07:55:00.103Z,20.93
2017-09-21T07:57:28.451Z,13.73
2017-09-21T07:59:56.055Z,15.17
2017-09-21T08:02:23.695Z,19.90
2017-09-21T08:04:51.260Z,16.10
2017-09-21T08:07:18.844Z,17.27
2017-09-21T08:09:47.279Z,17.00
2017-09-21T08:12:14.887Z,14.63
2017-09-21T08:14:42.451Z,13.37
2017-09-21T08:17:10.819Z,16.40
2017-09-21T08:19:38.392Z,11.70
2017-09-21T08:22:06.006Z,18.37
2017-09-21T08:24:34.129Z,11.40
2017-09-21T08:27:01.742Z,12.00
2017-09-21T08:29:29.318Z,16.67
2017-09-21T08:31:58.203Z,10.83
2017-09-21T08:34:25.833Z,11.63
2017-09-21T08:36:53.783Z,10.87
2017-09-21T08:39:21.368Z,12.10
2017-09-21T08:41:48.971Z,16.50
2017-09-21T08:44:16.636Z,13.77
2017-09-21T08:46:44.321Z,9.60
2017-09-21T08:49:11.917Z,13.80
2017-09-21T08:51:39.551Z,13.03
2017-09-21T08:54:07.415Z,14.93
2017-09-21T08:56:35.033Z,11.70
2017-09-21T08:59:03.398Z,12.03
2017-09-21T09:01:31.026Z,8.50
2017-09-21T09:03:58.700Z,9.37
2017-09-21T09:06:26.385Z,8.10
2017-09-21T09:08:53.950Z,8.83
2017-09-21T09:11:21.520Z,6.03
2017-09-21T09:13:49.083Z,8.50
2017-09-21T09:16:16.757Z,7.33
2017-09-21T09:18:44.337Z,5.73
2017-09-21T09:21:11.946Z,4.83
2017-09-21T09:23:39.507Z,3.33
2017-09-21T09:26:07.320Z,2.40
2017-09-21T09:28:34.917Z,4.30
2017-09-21T09:31:02.532Z,3.00
2017-09-21T09:33:30.285Z,2.43
2017-09-21T09:35:57.949Z,3.70
2017-09-21T09:38:25.520Z,4.13
2017-09-21T09:40:53.073Z,4.17
2017-09-21T09:43:20.725Z,5.03
2017-09-21T09:45:48.309Z,2.80
2017-09-21T09:48:15.907Z,3.73
2017-09-21T09:50:44.249Z,3.27
2017-09-21T09:53:11.919Z,3.63
2017-09-21T09:55:39.548Z,3.17
2017-09-21T09:58:07.913Z,3.90
2017-09-21T10:00:35.502Z,2.53
2017-09-21T10:03:03.838Z,2.80
2017-09-21T10:05:31.444Z,2.97
2017-09-21T10:07:59.817Z,3.10
2017-09-21T10:10:28.145Z,2.80
2017-09-21T10:12:55.720Z,2.00
2017-09-21T10:15:23.372Z,2.87
2017-09-21T10:17:50.973Z,2.80
2017-09-21T10:20:18.735Z,3.53
2017-09-21T10:22:46.327Z,2.33
2017-09-21T10:25:14.655Z,1.90
2017-09-21T10:27:43.137Z,3.43
2017-09-21T10:30:10.720Z,2.17
2017-09-21T10:32:38.305Z,1.70
2017-09-21T10:35:05.962Z,6.53
2017-09-21T10:37:33.573Z,3.10
2017-09-21T10:40:01.279Z,4.63
2017-09-21T10:42:28.862Z,2.77
2017-09-21T10:44:56.459Z,2.73
2017-09-21T10:47:24.035Z,2.40
2017-09-21T10:49:51.718Z,3.03
2017-09-21T10:52:20.200Z,3.17
2017-09-21T10:54:47.753Z,2.40
2017-09-21T10:57:15.343Z,9.73
2017-09-21T10:59:42.914Z,2.20
2017-09-21T11:02:10.543Z,1.90
2017-09-21T11:04:38.129Z,2.60
2017-09-21T11:07:05.720Z,4.53
2017-09-21T11:09:33.333Z,3.23
2017-09-21T11:12:00.985Z,3.00
2017-09-21T11:14:29.403Z,3.67
2017-09-21T11:16:56.992Z,2.47
2017-09-21T11:19:24.584Z,3.97
2017-09-21T11:21:52.920Z,6.40
2017-09-21T11:24:20.545Z,10.97
2017-09-21T11:26:48.883Z,2.50
2017-09-21T11:29:16.502Z,3.40
2017-09-21T11:31:44.838Z,2.33
2017-09-21T11:34:12.782Z,3.63
2017-09-21T11:36:40.393Z,2.73
2017-09-21T11:39:08.734Z,4.33
2017-09-21T11:41:36.312Z,3.20
2017-09-21T11:44:03.866Z,2.47
2017-09-21T11:46:31.512Z,2.60
2017-09-21T11:48:59.085Z,2.50
2017-09-21T11:51:26.676Z,2.10
2017-09-21T11:53:54.294Z,2.73
2017-09-21T11:56:22.947Z,3.07
2017-09-21T11:58:50.555Z,2.40
2017-09-21T12:01:18.146Z,3.73
2017-09-21T12:03:45.795Z,3.03
2017-09-21T12:06:13.666Z,1.60
2017-09-21T12:08:41.221Z,2.43
2017-09-21T12:11:08.815Z,1.70
2017-09-21T12:13:36.947Z,4.20
2017-09-21T12:16:04.617Z,3.83
2017-09-21T12:18:32.209Z,3.13
2017-09-21T12:20:59.966Z,3.57
2017-09-21T12:23:27.632Z,2.10
2017-09-21T12:25:55.704Z,2.33
2017-09-21T12:28:23.317Z,2.43
2017-09-21T12:30:50.881Z,4.10
2017-09-21T12:33:18.471Z,3.20
2017-09-21T12:35:46.787Z,3.73
2017-09-21T12:38:14.425Z,4.30
2017-09-21T12:40:41.998Z,3.43
2017-09-21T12:43:09.577Z,2.10
2017-09-21T12:45:37.207Z,1.77
2017-09-21T12:48:06.510Z,4.70
2017-09-21T12:50:34.959Z,1.87
2017-09-21T12:53:02.553Z,3.80
2017-09-21T12:55:30.937Z,3.90
2017-09-21T12:57:59.359Z,1.60
2017-09-21T13:00:26.985Z,2.30
2017-09-21T13:02:56.395Z,1.60
2017-09-21T13:05:25.552Z,2.63
2017-09-21T13:07:53.180Z,2.20
2017-09-21T13:10:20.776Z,1.50
2017-09-21T13:12:48.365Z,2.30
2017-09-21T13:15:16.785Z,2.80
2017-09-21T13:17:44.436Z,5.67
2017-09-21T13:20:13.475Z,3.23
2017-09-21T13:22:41.052Z,3.80
2017-09-21T13:25:08.657Z,2.00
2017-09-21T13:27:36.979Z,6.30
2017-09-21T13:30:04.755Z,5.87
2017-09-21T13:32:32.341Z,2.37
2017-09-21T13:34:59.917Z,1.57
2017-09-21T13:37:28.466Z,1.93
2017-09-21T13:39:56.066Z,1.83
2017-09-21T13:42:23.656Z,1.80
2017-09-21T13:44:51.267Z,2.10
2017-09-21T13:47:18.861Z,3.13
2017-09-21T13:49:47.541Z,2.77
2017-09-21T13:52:15.161Z,2.00
2017-09-21T13:54:42.760Z,2.00
2017-09-21T13:57:10.339Z,1.50
2017-09-21T13:59:37.941Z,2.53
2017-09-21T14:02:06.315Z,1.53
2017-09-21T14:04:34.713Z,1.90
2017-09-21T14:07:02.327Z,2.63
2017-09-21T14:09:29.945Z,1.50
2017-09-21T14:11:57.853Z,1.70
2017-09-21T14:14:25.425Z,1.40
2017-09-21T14:16:53.044Z,1.97
2017-09-21T14:19:20.634Z,2.23
2017-09-21T14:21:48.267Z,3.27
2017-09-21T14:24:15.860Z,1.50
2017-09-21T14:26:43.468Z,2.20
2017-09-21T14:29:11.067Z,1.70
2017-09-21T14:31:38.696Z,1.47
2017-09-21T14:34:06.267Z,1.63
2017-09-21T14:36:34.622Z,2.33
2017-09-21T14:39:02.220Z,3.07
2017-09-21T14:41:31.409Z,1.77
2017-09-21T14:43:59.086Z,1.70
2017-09-21T14:46:27.429Z,1.67
2017-09-21T14:48:55.015Z,2.33
2017-09-21T14:51:22.601Z,1.87
2017-09-21T14:53:51.601Z,1.90
2017-09-21T14:56:20.023Z,3.10
2017-09-21T14:58:47.619Z,1.73
2017-09-21T15:01:15.253Z,7.70
2017-09-21T15:03:43.760Z,2.73
2017-09-21T15:06:11.385Z,4.27
2017-09-21T15:08:41.353Z,1.87
2017-09-21T15:11:09.895Z,2.00
2017-09-21T15:13:37.504Z,1.80
2017-09-21T15:16:05.056Z,2.30
2017-09-21T15:18:33.410Z,1.70
2017-09-21T15:21:01.086Z,2.10
2017-09-21T15:23:28.677Z,1.50
2017-09-21T15:25:57.083Z,2.23
2017-09-21T15:28:25.437Z,1.50
2017-09-21T15:30:53.043Z,1.50
2017-09-21T15:33:21.372Z,3.80
2017-09-21T15:36:05.185Z,2.10
2017-09-21T15:38:32.782Z,2.97
2017-09-21T15:41:00.358Z,4.10
2017-09-21T15:43:27.943Z,2.50
2017-09-21T15:45:57.263Z,2.60
2017-09-21T15:48:25.679Z,1.50
2017-09-21T15:50:54.851Z,4.47
2017-09-21T15:53:22.561Z,2.33
2017-09-21T15:55:50.169Z,2.00
2017-09-21T15:58:18.684Z,2.73
2017-09-21T16:00:46.246Z,9.43
2017-09-21T16:03:13.844Z,2.43
2017-09-21T16:05:41.398Z,2.10
2017-09-21T16:08:09.004Z,2.30
2017-09-21T16:10:37.628Z,4.47
2017-09-21T16:13:05.295Z,2.87
2017-09-21T16:15:32.863Z,2.03
2017-09-21T16:18:00.436Z,3.10
2017-09-21T16:20:28.026Z,2.13
2017-09-21T16:22:55.602Z,3.50
2017-09-21T16:25:23.322Z,2.47
2017-09-21T16:27:50.888Z,2.60
2017-09-21T16:30:18.517Z,4.70
2017-09-21T16:32:46.213Z,3.20
2017-09-21T16:35:13.778Z,4.63
2017-09-21T16:37:41.381Z,3.77
2017-09-21T16:40:08.947Z,5.00
2017-09-21T16:42:36.524Z,4.03
2017-09-21T16:45:04.102Z,2.63
2017-09-21T16:47:32.469Z,4.03
2017-09-21T16:50:00.811Z,3.73
2017-09-21T16:52:28.426Z,3.70
2017-09-21T16:54:57.096Z,2.97
2017-09-21T16:57:25.238Z,3.67
2017-09-21T16:59:52.819Z,2.17
2017-09-21T17:02:20.400Z,4.70
2017-09-21T17:04:48.047Z,6.00
2017-09-21T17:07:15.615Z,2.83
2017-09-21T17:09:43.228Z,4.43
2017-09-21T17:12:10.800Z,5.63
2017-09-21T17:14:38.392Z,4.33
2017-09-21T17:17:05.997Z,6.10
2017-09-21T17:19:34.394Z,6.07
2017-09-21T17:22:02.736Z,4.40
2017-09-21T17:24:30.579Z,5.20
2017-09-21T17:26:58.221Z,4.67
2017-09-21T17:29:25.869Z,4.50
2017-09-21T17:31:54.232Z,3.57
2017-09-21T17:34:22.745Z,4.53
2017-09-21T17:36:50.478Z,9.47
2017-09-21T17:39:18.043Z,6.27
2017-09-21T17:41:47.196Z,5.30
2017-09-21T17:44:14.787Z,5.80
2017-09-21T17:46:42.385Z,7.37
2017-09-21T17:49:10.097Z,6.93
2017-09-21T17:51:37.655Z,6.60
2017-09-21T17:54:05.241Z,8.40
2017-09-21T17:56:33.011Z,5.87
2017-09-21T17:59:00.606Z,8.20
2017-09-21T18:01:28.231Z,5.43
2017-09-21T18:03:55.792Z,6.80
2017-09-21T18:06:23.387Z,5.00
2017-09-21T18:08:52.558Z,4.67
2017-09-21T18:11:20.991Z,4.30
2017-09-21T18:13:48.586Z,6.43
2017-09-21T18:16:16.168Z,9.40
2017-09-21T18:18:43.836Z,5.70
2017-09-21T18:21:11.505Z,8.10
2017-09-21T18:23:39.087Z,8.00
2017-09-21T18:26:06.734Z,5.83
2017-09-21T18:28:34.285Z,5.97
2017-09-21T18:31:01.880Z,7.70
2017-09-21T18:33:30.343Z,8.67
2017-09-21T18:35:58.009Z,5.37
2017-09-21T18:38:25.585Z,9.80
2017-09-21T18:40:53.227Z,12.90
2017-09-21T18:43:20.854Z,5.87
2017-09-21T18:45:48.457Z,7.00
2017-09-21T18:48:16.038Z,12.10
2017-09-21T18:50:43.663Z,7.97
2017-09-21T18:53:12.183Z,7.47
2017-09-21T18:55:39.774Z,12.90
2017-09-21T18:58:08.541Z,17.07
2017-09-21T19:00:37.081Z,13.40
2017-09-21T19:03:05.463Z,10.60
2017-09-21T19:05:33.793Z,7.17
2017-09-21T19:08:01.378Z,8.30
2017-09-21T19:10:28.957Z,7.57
2017-09-21T19:12:56.538Z,7.93
2017-09-21T19:15:24.892Z,6.50
2017-09-21T19:17:52.496Z,5.90
2017-09-21T19:20:20.857Z,11.90
2017-09-21T19:22:48.435Z,5.57
2017-09-21T19:25:16.786Z,7.20
2017-09-21T19:27:44.379Z,7.70
2017-09-21T19:30:12.728Z,8.40
2017-09-21T19:32:40.582Z,8.13
2017-09-21T19:35:08.177Z,17.73
2017-09-21T19:37:35.780Z,12.30
2017-09-21T19:40:03.388Z,10.57
2017-09-21T19:42:30.945Z,8.43
2017-09-21T19:44:58.540Z,9.17
2017-09-21T19:47:26.097Z,9.63
2017-09-21T19:49:53.750Z,7.63
2017-09-21T19:52:21.403Z,7.67
2017-09-21T19:54:48.961Z,9.13
2017-09-21T19:57:16.776Z,9.83
2017-09-21T19:59:45.513Z,12.13
2017-09-21T20:02:13.094Z,5.80
2017-09-21T20:04:40.758Z,7.83
2017-09-21T20:07:08.389Z,5.90
2017-09-21T20:09:35.971Z,7.57
2017-09-21T20:12:03.553Z,9.83
2017-09-21T20:14:31.144Z,8.07
2017-09-21T20:16:59.585Z,6.80
2017-09-21T20:19:27.179Z,8.50
2017-09-21T20:21:54.765Z,9.70
2017-09-21T20:24:23.306Z,10.87
2017-09-21T20:26:50.897Z,8.63
2017-09-21T20:29:18.453Z,9.20
2017-09-21T20:31:46.044Z,9.63
2017-09-21T20:34:14.386Z,10.13
2017-09-21T20:36:41.978Z,9.10
2017-09-21T20:39:09.550Z,7.80
2017-09-21T20:41:37.165Z,9.13
2017-09-21T20:44:04.756Z,8.40
2017-09-21T20:46:32.331Z,10.23
2017-09-21T20:48:59.944Z,7.80
2017-09-21T20:51:27.522Z,9.20
2017-09-21T20:53:55.133Z,7.73
2017-09-21T20:56:23.479Z,8.73
2017-09-21T20:58:51.089Z,7.10
2017-09-21T21:01:19.435Z,8.33
2017-09-21T21:03:46.999Z,9.13
2017-09-21T21:06:14.609Z,7.70
2017-09-21T21:08:42.942Z,10.33
2017-09-21T21:11:10.943Z,6.67
2017-09-21T21:13:38.515Z,8.67
2017-09-21T21:16:06.115Z,8.03
2017-09-21T21:18:33.684Z,11.00
2017-09-21T21:21:01.487Z,7.43
2017-09-21T21:23:29.091Z,7.37
2017-09-21T21:25:56.696Z,8.10
2017-09-21T21:28:24.337Z,10.53
2017-09-21T21:30:51.979Z,7.23
2017-09-21T21:33:20.384Z,18.80
2017-09-21T21:35:47.994Z,8.60
2017-09-21T21:38:15.571Z,11.23
2017-09-21T21:40:43.240Z,9.97
2017-09-21T21:43:12.323Z,7.73
2017-09-21T21:45:40.075Z,11.30
2017-09-21T21:48:07.653Z,6.47
2017-09-21T21:50:35.269Z,8.27
2017-09-21T21:53:03.422Z,10.40
2017-09-21T21:55:30.989Z,6.97
2017-09-21T21:57:59.367Z,10.37
2017-09-21T22:00:27.725Z,7.73
2017-09-21T22:02:55.319Z,9.30
2017-09-21T22:05:23.665Z,6.83
2017-09-21T22:07:51.332Z,7.90
2017-09-21T22:10:19.107Z,10.87
2017-09-21T22:12:46.678Z,10.00
2017-09-21T22:15:14.275Z,6.57
2017-09-21T22:17:42.597Z,9.20
2017-09-21T22:20:10.245Z,6.50
2017-09-21T22:22:37.919Z,8.27
2017-09-21T22:25:05.509Z,8.90
2017-09-21T22:27:33.088Z,9.07
2017-09-21T22:30:00.674Z,9.17
2017-09-21T22:32:29.035Z,7.03
2017-09-21T22:34:56.672Z,9.07
2017-09-21T22:37:24.295Z,8.30
2017-09-21T22:39:52.694Z,8.20
2017-09-21T22:42:20.307Z,7.90
2017-09-21T22:44:47.895Z,11.77
2017-09-21T22:47:16.231Z,8.80
2017-09-21T22:49:43.821Z,11.63
2017-09-21T22:52:12.371Z,10.57
2017-09-21T22:54:39.967Z,11.00
2017-09-21T22:57:07.520Z,8.50
2017-09-21T22:59:35.116Z,12.63
2017-09-21T23:02:03.456Z,7.63
2017-09-21T23:04:31.069Z,8.70
2017-09-21T23:06:59.408Z,9.90
2017-09-21T23:09:26.973Z,10.67
2017-09-21T23:11:54.615Z,12.13
2017-09-21T23:14:22.201Z,8.83
2017-09-21T23:16:49.776Z,8.43
2017-09-21T23:19:17.358Z,9.63
2017-09-21T23:21:44.932Z,8.90
2017-09-21T23:24:13.292Z,11.40
2017-09-21T23:26:40.851Z,9.50
2017-09-21T23:29:08.451Z,8.13
2017-09-21T23:31:36.775Z,9.60
2017-09-21T23:34:04.393Z,9.30
2017-09-21T23:36:32.033Z,10.00
2017-09-21T23:38:59.634Z,6.87
2017-09-21T23:41:27.256Z,10.23
2017-09-21T23:43:54.892Z,9.20
2017-09-21T23:46:22.486Z,8.97
2017-09-21T23:48:50.041Z,9.80
2017-09-21T23:51:18.409Z,10.60
2017-09-21T23:53:46.027Z,9.87
2017-09-21T23:56:14.560Z,9.43
2017-09-21T23:58:42.117Z,10.00
